Landa Park Highlands, TX

9:31 AM CST on February 27, 2017 (GMT -0600)
Oakwood Estates | | Change Station

Elev 758 ft 29.72 °N, 98.14 °W | Updated 160 days ago

Overcast
Overcast
85.9 °F
Feels Like 95 °F
N
0.0
Wind Variable Wind from SE
Gusts 0.0 mph

Today
High -- | Low -- °F
--% Chance of Precip.
Yesterday
High -- | Low -- °F
Precip. -- in
Pressure 29.94 in
Visibility 5.0 miles
Clouds Scattered Clouds 1400 ft
Overcast 2600 ft
Heat Index 95 °F
Dew Point 74.9 °F
Humidity 70%
Rainfall in
Snow Depth Not available.
7:00 AM 6:30 PM
New Moon, 1% visible
METAR KBAZ 271451Z 12005KT 5SM BR SCT014 OVC026 21/18 A2996 RMK AO2 SLP139 T02060183 53011
Pressure 29.94 in
Visibility 5.0 miles
Clouds Scattered Clouds 1400 ft
Overcast 2600 ft
Heat Index 95 °F
Dew Point 74.9 °F
Humidity 70%
Rainfall in
Snow Depth Not available.
7:00 AM 6:30 PM
New Moon, 1% visible
METAR KBAZ 271451Z 12005KT 5SM BR SCT014 OVC026 21/18 A2996 RMK AO2 SLP139 T02060183 53011

Get Your Daily Forecast Email!

Thanks for signing up!

Be on the lookout for a verification email in your inbox.

You'll start receiving the daily forecast at 8 AM.

×

10-Day Weather Forecast

Almanac

Astronomy

Feb. 27, 2017 Rise Set
Actual Time
Civil Twilight
Nautical Twilight
Astronomical Twilight
Moon
Length of Visible Light
Length of Day
Tomorrow will be .
, % of the Moon is Illuminated

Today's Extremes

State Highs State Lows

Community

WunderPhotos

Upload Photos

1,962,540 photos uploaded!

WunderBlog® & News

Nearby

Air Quality

  Air Quality AQ Index Pollutant
Not available.

Snow Depth

Station Depth Elevation

Earthquake Activity

City Distance Mag. Time & Date
Minimum magnitude displayed is 2.5.

Coastal Water Temperatures

Place Temperature

Stations

Nearby Weather Stations

Station Location Temp. Windchill Dew Point Humidity Wind Precip. Elev Updated Type
                   

Watches & Warnings

There are currently no watches in effect.